createdAt,value
2023-08-16T00:01:01.034Z,95302.72
2023-08-16T00:03:30.359Z,95268.44
2023-08-16T00:05:58.768Z,95309.03
2023-08-16T00:08:27.003Z,95307.13
2023-08-16T00:10:55.312Z,95305.63
2023-08-16T00:13:25.024Z,95266.47
2023-08-16T00:15:53.300Z,95298.84
2023-08-16T00:18:21.682Z,95299.72
2023-08-16T00:20:50.137Z,95301.06
2023-08-16T00:23:18.424Z,95304.63
2023-08-16T00:25:46.732Z,95302.00
2023-08-16T00:28:14.957Z,95297.06
2023-08-16T00:30:44.675Z,95296.44
2023-08-16T00:33:13.061Z,95297.28
2023-08-16T00:35:41.302Z,95299.03
2023-08-16T00:38:09.665Z,95285.63
2023-08-16T00:40:37.834Z,95294.31
2023-08-16T00:43:06.485Z,95288.75
2023-08-16T00:45:34.965Z,95280.97
2023-08-16T00:48:04.708Z,95282.91
2023-08-16T00:50:33.324Z,95289.34
2023-08-16T00:53:03.421Z,95290.66
2023-08-16T00:55:31.957Z,95295.22
2023-08-16T00:58:00.326Z,95291.66
2023-08-16T01:00:29.509Z,95297.56
2023-08-16T01:02:57.998Z,95294.16
2023-08-16T01:05:28.454Z,95293.69
2023-08-16T01:07:56.783Z,95295.59
2023-08-16T01:10:34.082Z,95298.53
2023-08-16T01:13:10.754Z,95296.34
2023-08-16T01:15:43.120Z,95288.75
2023-08-16T01:18:12.745Z,95293.97
2023-08-16T01:20:43.095Z,95296.50
2023-08-16T01:23:17.940Z,95283.88
2023-08-16T01:25:50.746Z,95249.59
2023-08-16T01:28:21.366Z,95299.44
2023-08-16T01:30:50.129Z,95291.59
2023-08-16T01:33:18.512Z,95288.47
2023-08-16T01:35:47.092Z,95293.88
2023-08-16T01:38:15.447Z,95283.50
2023-08-16T01:40:51.822Z,95291.16
2023-08-16T01:43:22.554Z,95272.00
2023-08-16T01:45:53.211Z,95278.88
2023-08-16T01:48:24.033Z,95281.56
2023-08-16T01:50:52.583Z,95276.00
2023-08-16T01:53:21.517Z,95277.56
2023-08-16T01:55:49.820Z,95279.50
2023-08-16T01:58:18.659Z,95280.00
2023-08-16T02:00:48.508Z,95276.72
2023-08-16T02:03:16.957Z,95272.63
2023-08-16T02:05:45.639Z,95272.41
2023-08-16T02:08:13.961Z,95270.59
2023-08-16T02:10:42.337Z,95270.06
2023-08-16T02:13:10.722Z,95263.97
2023-08-16T02:15:39.110Z,95279.50
2023-08-16T02:18:12.234Z,95266.41
2023-08-16T02:20:40.984Z,95279.25
2023-08-16T02:23:09.848Z,95280.59
2023-08-16T02:25:38.148Z,95278.41
2023-08-16T02:28:06.769Z,95274.34
2023-08-16T02:30:35.025Z,95290.28
2023-08-16T02:33:03.289Z,95290.66
2023-08-16T02:35:33.223Z,95299.88
2023-08-16T02:38:01.533Z,95293.84
2023-08-16T02:40:29.776Z,95292.88
2023-08-16T02:42:58.038Z,95246.75
2023-08-16T02:45:26.327Z,95294.09
2023-08-16T02:47:57.047Z,95300.56
2023-08-16T02:50:25.602Z,95294.56
2023-08-16T02:52:55.319Z,95303.00
2023-08-16T02:55:23.576Z,95301.47
2023-08-16T02:57:52.490Z,95295.38
2023-08-16T03:00:21.120Z,95293.03
2023-08-16T03:02:49.548Z,95296.59
2023-08-16T03:05:17.883Z,95298.94
2023-08-16T03:07:46.147Z,95290.97
2023-08-16T03:10:15.784Z,95292.16
2023-08-16T03:12:44.152Z,95292.56
2023-08-16T03:15:13.140Z,95285.56
2023-08-16T03:17:41.474Z,95247.66
2023-08-16T03:20:11.289Z,95287.41
2023-08-16T03:22:39.571Z,95301.00
2023-08-16T03:25:08.226Z,95301.53
2023-08-16T03:27:37.975Z,95296.91
2023-08-16T03:30:07.760Z,95296.91
2023-08-16T03:32:36.109Z,95293.53
2023-08-16T03:35:04.535Z,95254.06
2023-08-16T03:37:33.617Z,95300.84
2023-08-16T03:40:01.943Z,95255.06
2023-08-16T03:42:31.240Z,95306.25
2023-08-16T03:45:00.992Z,95298.22
2023-08-16T03:47:31.357Z,95276.03
2023-08-16T03:50:00.926Z,95298.84
2023-08-16T03:52:29.256Z,95305.69
2023-08-16T03:54:57.533Z,95298.53
2023-08-16T03:57:26.189Z,95308.91
2023-08-16T03:59:56.179Z,95306.94
2023-08-16T04:02:26.118Z,95294.31
2023-08-16T04:04:55.600Z,95307.38
2023-08-16T04:07:24.613Z,95305.34
2023-08-16T04:09:53.138Z,95301.47
2023-08-16T04:12:21.469Z,95301.84
2023-08-16T04:14:49.876Z,95309.16
2023-08-16T04:17:18.184Z,95287.59
2023-08-16T04:19:47.834Z,95310.53
2023-08-16T04:22:16.241Z,95313.25
2023-08-16T04:24:44.488Z,95315.03
2023-08-16T04:27:12.710Z,95259.75
2023-08-16T04:29:41.521Z,95316.41
2023-08-16T04:32:09.857Z,95317.16
2023-08-16T04:34:38.149Z,95278.13
2023-08-16T04:37:07.898Z,95313.81
2023-08-16T04:39:36.157Z,95289.13
2023-08-16T04:42:04.561Z,95310.59
2023-08-16T04:44:32.821Z,95313.44
2023-08-16T04:47:01.095Z,95313.44
2023-08-16T04:49:29.602Z,95278.88
2023-08-16T04:51:57.983Z,95318.03
2023-08-16T04:54:27.675Z,95292.13
2023-08-16T04:56:56.010Z,95308.09
2023-08-16T04:59:24.391Z,95302.63
2023-08-16T05:01:52.682Z,95299.50
2023-08-16T05:04:20.989Z,95313.91
2023-08-16T05:06:49.273Z,95309.34
2023-08-16T05:09:17.512Z,95313.38
2023-08-16T05:11:47.207Z,95309.19
2023-08-16T05:14:15.504Z,95313.38
2023-08-16T05:16:43.924Z,95316.66
2023-08-16T05:19:12.124Z,95308.97
2023-08-16T05:21:40.415Z,95306.88
2023-08-16T05:24:09.401Z,95309.09
2023-08-16T05:26:37.931Z,95301.88
2023-08-16T05:29:07.742Z,95306.38
2023-08-16T05:31:36.226Z,95309.59
2023-08-16T05:34:04.557Z,95303.13
2023-08-16T05:36:32.930Z,95307.03
2023-08-16T05:39:01.173Z,95255.00
2023-08-16T05:41:30.167Z,95300.41
2023-08-16T05:43:58.438Z,95302.22
2023-08-16T05:46:28.116Z,95295.00
2023-08-16T05:48:56.479Z,95299.88
2023-08-16T05:51:24.854Z,95293.44
2023-08-16T05:53:53.244Z,95288.47
2023-08-16T05:56:21.557Z,95287.72
2023-08-16T05:58:49.825Z,95283.50
2023-08-16T06:01:18.370Z,95281.44
2023-08-16T06:03:48.133Z,95274.44
2023-08-16T06:06:16.728Z,95276.94
2023-08-16T06:08:45.087Z,95263.56
2023-08-16T06:11:13.531Z,95221.97
2023-08-16T06:13:41.841Z,95272.56
2023-08-16T06:16:10.188Z,95268.88
2023-08-16T06:18:38.573Z,95270.41
2023-08-16T06:21:10.792Z,95268.50
2023-08-16T06:23:39.458Z,95266.84
2023-08-16T06:26:07.804Z,95264.09
2023-08-16T06:28:36.136Z,95261.81
2023-08-16T06:31:05.037Z,95263.25
2023-08-16T06:33:33.897Z,95262.50
2023-08-16T06:36:02.169Z,95256.66
2023-08-16T06:38:32.012Z,95264.09
2023-08-16T06:41:00.343Z,95260.81
2023-08-16T06:43:28.703Z,95256.94
2023-08-16T06:45:58.139Z,95255.00
2023-08-16T06:48:26.453Z,95210.59
2023-08-16T06:50:56.209Z,95245.06
2023-08-16T06:53:24.547Z,95248.25
2023-08-16T06:55:55.659Z,95240.81
2023-08-16T06:58:23.981Z,95217.72
2023-08-16T07:00:52.310Z,95236.34
2023-08-16T07:03:20.837Z,95210.59
2023-08-16T07:05:49.228Z,95220.69
2023-08-16T07:08:17.553Z,95219.47
2023-08-16T07:10:46.130Z,95199.53
2023-08-16T07:13:16.055Z,95215.88
2023-08-16T07:15:44.430Z,95214.53
2023-08-16T07:18:12.840Z,95212.53
2023-08-16T07:20:41.415Z,95215.69
2023-08-16T07:23:09.724Z,95216.78
2023-08-16T07:25:38.161Z,95210.84
2023-08-16T07:28:07.858Z,95193.28
2023-08-16T07:30:40.234Z,95203.81
2023-08-16T07:33:08.653Z,95168.41
2023-08-16T07:35:37.418Z,95180.00
2023-08-16T07:38:06.032Z,95148.25
2023-08-16T07:40:34.310Z,95196.88
2023-08-16T07:43:02.612Z,95189.72
2023-08-16T07:45:30.950Z,95187.47
2023-08-16T07:48:00.667Z,95117.44
2023-08-16T07:50:28.959Z,95170.81
2023-08-16T07:52:57.227Z,95179.25
2023-08-16T07:55:30.489Z,95166.22
2023-08-16T07:57:58.840Z,95173.84
2023-08-16T08:00:27.420Z,95171.66
2023-08-16T08:03:00.315Z,95163.59
2023-08-16T08:05:31.949Z,95157.97
2023-08-16T08:08:02.012Z,95164.19
2023-08-16T08:10:32.460Z,95126.53
2023-08-16T08:13:00.963Z,95165.25
2023-08-16T08:15:29.418Z,95152.91
2023-08-16T08:17:57.894Z,95162.06
2023-08-16T08:20:26.270Z,95160.06
2023-08-16T08:22:56.092Z,95153.75
2023-08-16T08:25:26.150Z,95141.53
2023-08-16T08:27:54.552Z,95147.09
2023-08-16T08:30:23.025Z,95144.31
2023-08-16T08:32:51.377Z,95143.09
2023-08-16T08:35:20.250Z,95147.75
2023-08-16T08:37:48.551Z,95095.53
2023-08-16T08:40:19.864Z,95145.66
2023-08-16T08:42:49.356Z,95136.72
2023-08-16T08:45:17.983Z,95137.06
2023-08-16T08:47:46.565Z,95145.84
2023-08-16T08:50:15.113Z,95145.91
2023-08-16T08:52:49.445Z,95114.69
2023-08-16T08:55:19.244Z,95119.00
2023-08-16T08:57:51.708Z,95145.00
2023-08-16T09:00:22.697Z,95140.81
2023-08-16T09:02:52.120Z,95126.63
2023-08-16T09:05:23.798Z,95129.44
2023-08-16T09:07:53.249Z,95132.63
2023-08-16T09:10:24.670Z,95121.97
2023-08-16T09:12:53.329Z,95104.44
2023-08-16T09:15:21.797Z,95120.63
2023-08-16T09:17:52.201Z,95105.31
2023-08-16T09:20:20.994Z,95109.69
2023-08-16T09:22:50.940Z,95109.22
2023-08-16T09:25:19.421Z,95100.66
2023-08-16T09:27:49.172Z,95084.34
2023-08-16T09:30:17.676Z,95108.75
2023-08-16T09:32:47.099Z,95110.44
2023-08-16T09:35:15.509Z,95097.19
2023-08-16T09:37:45.049Z,95098.69
2023-08-16T09:40:13.762Z,95093.84
2023-08-16T09:42:42.486Z,95095.63
2023-08-16T09:45:12.546Z,95094.19
2023-08-16T09:50:23.306Z,95094.97
2023-08-16T09:52:52.003Z,95089.22
2023-08-16T09:55:30.952Z,95094.56
2023-08-16T09:57:59.980Z,95089.81
2023-08-16T10:00:31.414Z,95083.75
2023-08-16T10:03:00.127Z,95081.03
2023-08-16T10:08:15.145Z,95085.09
2023-08-16T10:10:44.667Z,95084.47
2023-08-16T10:13:13.773Z,95084.50
2023-08-16T10:15:48.427Z,95087.41
2023-08-16T10:18:21.154Z,95078.47
2023-08-16T10:20:51.181Z,95080.31
2023-08-16T10:23:22.026Z,95073.22
2023-08-16T10:25:51.113Z,95046.22
2023-08-16T10:28:22.821Z,95060.19
2023-08-16T10:33:33.012Z,95057.19
2023-08-16T10:36:02.127Z,95055.09
2023-08-16T10:38:38.249Z,95052.38
2023-08-16T10:41:13.787Z,95045.03
2023-08-16T10:43:50.161Z,95043.72
2023-08-16T10:46:32.450Z,95035.81
2023-08-16T10:49:02.566Z,95038.97
2023-08-16T10:51:31.302Z,95037.53
2023-08-16T10:54:00.583Z,95039.53
2023-08-16T10:56:45.213Z,95039.94
2023-08-16T10:59:14.185Z,95033.94
2023-08-16T11:01:52.077Z,95031.06
2023-08-16T11:04:23.889Z,95034.00
2023-08-16T11:07:02.671Z,95034.25
2023-08-16T11:09:33.342Z,95031.72
2023-08-16T11:12:06.865Z,95017.78
2023-08-16T11:14:36.044Z,95030.47
2023-08-16T11:17:05.962Z,95016.22
2023-08-16T11:19:35.292Z,95020.84
2023-08-16T11:22:04.958Z,95020.50
2023-08-16T11:24:34.040Z,95011.13
2023-08-16T11:27:04.498Z,95020.47
2023-08-16T11:29:32.912Z,95014.78
2023-08-16T11:32:01.446Z,95008.03
2023-08-16T11:34:35.008Z,95014.28
2023-08-16T11:37:03.424Z,94981.03
2023-08-16T11:39:32.722Z,95000.19
2023-08-16T11:42:05.289Z,94997.03
2023-08-16T11:44:40.602Z,94990.91
2023-08-16T11:47:12.341Z,94988.47
2023-08-16T11:49:42.162Z,94981.78
2023-08-16T11:52:10.447Z,94974.88
2023-08-16T11:54:38.748Z,94977.69
2023-08-16T11:57:17.984Z,94971.25
2023-08-16T11:59:56.695Z,94974.72
2023-08-16T12:02:26.146Z,94925.84
2023-08-16T12:04:56.101Z,94963.09
2023-08-16T12:07:25.645Z,94981.47
2023-08-16T12:09:54.135Z,94965.28
2023-08-16T12:12:22.430Z,94963.47
2023-08-16T12:14:50.724Z,94962.75
2023-08-16T12:17:19.115Z,94957.22
2023-08-16T12:19:47.439Z,94954.59
2023-08-16T12:22:17.153Z,94968.03
2023-08-16T12:24:45.550Z,94965.22
2023-08-16T12:27:13.877Z,94960.56
2023-08-16T12:29:42.127Z,94955.13
2023-08-16T12:32:10.421Z,94951.91
2023-08-16T12:34:47.930Z,94951.34
2023-08-16T12:37:28.388Z,94947.53
2023-08-16T12:39:56.761Z,94947.13
2023-08-16T12:42:25.166Z,94950.25
2023-08-16T12:44:53.741Z,94946.44
2023-08-16T12:47:22.212Z,94941.66
2023-08-16T12:49:50.675Z,94940.19
2023-08-16T12:52:18.926Z,94942.22
2023-08-16T12:54:48.593Z,94937.38
2023-08-16T12:57:25.619Z,94944.34
2023-08-16T12:59:54.722Z,94934.56
2023-08-16T13:02:36.350Z,94940.63
2023-08-16T13:07:50.191Z,94939.94
2023-08-16T13:18:21.711Z,94917.22
2023-08-16T13:20:45.445Z,94928.94
2023-08-16T13:23:15.289Z,94936.38
2023-08-16T13:28:19.981Z,94947.97
2023-08-16T13:31:06.129Z,94941.31
2023-08-16T13:33:44.372Z,94937.22
2023-08-16T13:36:23.157Z,94929.63
2023-08-16T13:44:30.335Z,94939.94
2023-08-16T13:46:50.235Z,94934.53
2023-08-16T13:49:18.731Z,94944.03
2023-08-16T13:51:47.028Z,94947.88
2023-08-16T13:54:15.327Z,94940.78
2023-08-16T13:56:48.572Z,94937.56
2023-08-16T13:59:17.418Z,94936.66
2023-08-16T14:01:45.899Z,94926.94
2023-08-16T14:04:14.964Z,94905.91
2023-08-16T14:06:43.727Z,94942.94
2023-08-16T14:09:12.089Z,94937.75
2023-08-16T14:11:42.396Z,94947.44
2023-08-16T14:14:12.877Z,94947.50
2023-08-16T14:16:41.309Z,94943.47
2023-08-16T14:19:09.632Z,94946.19
2023-08-16T14:21:41.216Z,94925.56
2023-08-16T14:24:12.322Z,94946.94
2023-08-16T14:26:40.646Z,94950.56
2023-08-16T14:29:11.593Z,94951.78
2023-08-16T14:31:41.891Z,94938.03
2023-08-16T14:34:10.253Z,94959.50
2023-08-16T14:36:38.581Z,94954.88
2023-08-16T14:39:07.128Z,94951.09
2023-08-16T14:41:35.539Z,94959.81
2023-08-16T14:44:03.950Z,94963.53
2023-08-16T14:46:32.294Z,94970.75
2023-08-16T14:49:02.047Z,94966.59
2023-08-16T14:51:30.391Z,94973.09
2023-08-16T14:53:58.677Z,94976.00
2023-08-16T14:56:26.891Z,94987.28
2023-08-16T14:58:55.146Z,94980.78
2023-08-16T15:01:23.502Z,94979.94
2023-08-16T15:03:51.955Z,94983.81
2023-08-16T15:06:23.223Z,94981.19
2023-08-16T15:08:51.716Z,94991.06
2023-08-16T15:11:20.926Z,94994.34
2023-08-16T15:13:49.272Z,94984.50
2023-08-16T15:16:20.023Z,94997.19
2023-08-16T15:18:48.424Z,94996.16
2023-08-16T15:21:16.691Z,94994.94
2023-08-16T15:23:47.443Z,94985.41
2023-08-16T15:26:15.772Z,94997.28
2023-08-16T15:28:44.167Z,94922.66
2023-08-16T15:31:12.457Z,95010.88
2023-08-16T15:33:42.109Z,95013.44
2023-08-16T15:36:11.893Z,95001.06
2023-08-16T15:38:44.218Z,94948.41
2023-08-16T15:41:14.415Z,95003.03
2023-08-16T15:43:44.528Z,95010.03
2023-08-16T15:46:14.929Z,95006.22
2023-08-16T15:48:43.381Z,95003.91
2023-08-16T15:51:11.932Z,95007.78
2023-08-16T15:53:40.377Z,95009.28
2023-08-16T15:56:08.643Z,95004.50
2023-08-16T15:58:38.297Z,95019.47
2023-08-16T16:01:08.182Z,95023.84
2023-08-16T16:03:36.812Z,95031.00
2023-08-16T16:06:05.624Z,95029.16
2023-08-16T16:08:35.952Z,95029.50
2023-08-16T16:11:04.209Z,95027.72
2023-08-16T16:13:32.571Z,95034.44
2023-08-16T16:16:02.365Z,95032.06
2023-08-16T16:18:30.803Z,95029.88
2023-08-16T16:20:59.179Z,95030.47
2023-08-16T16:23:27.508Z,95034.09
2023-08-16T16:25:57.229Z,95038.31
2023-08-16T16:28:25.584Z,95053.34
2023-08-16T16:30:56.716Z,95040.91
2023-08-16T16:33:26.369Z,95045.03
2023-08-16T16:35:54.670Z,95055.31
2023-08-16T16:38:22.989Z,95062.03
2023-08-16T16:40:51.313Z,95062.75
2023-08-16T16:43:19.704Z,95023.81
2023-08-16T16:45:48.069Z,95068.63
2023-08-16T16:48:16.289Z,95076.53
2023-08-16T16:50:46.019Z,95078.03
2023-08-16T16:53:14.269Z,95079.81
2023-08-16T16:55:42.568Z,95078.53
2023-08-16T16:58:10.831Z,95076.97
2023-08-16T17:00:39.230Z,95096.09
2023-08-16T17:03:07.738Z,95094.66
2023-08-16T17:05:36.192Z,95098.09
2023-08-16T17:08:06.390Z,95102.13
2023-08-16T17:10:34.673Z,95102.16
2023-08-16T17:13:02.932Z,95087.88
2023-08-16T17:15:31.245Z,95113.09
2023-08-16T17:17:59.665Z,95106.78
2023-08-16T17:20:27.970Z,95112.53
2023-08-16T17:22:56.796Z,95120.44
2023-08-16T17:25:26.664Z,95107.38
2023-08-16T17:27:55.530Z,95115.09
2023-08-16T17:30:23.878Z,95117.59
2023-08-16T17:32:52.184Z,95102.53
2023-08-16T17:35:20.532Z,95128.34
2023-08-16T17:37:48.788Z,95131.84
2023-08-16T17:40:17.017Z,95134.13
2023-08-16T17:42:46.772Z,95135.69
2023-08-16T17:45:15.118Z,95140.75
2023-08-16T17:47:43.451Z,95144.63
2023-08-16T17:50:12.003Z,95112.81
2023-08-16T17:52:40.314Z,95144.00
2023-08-16T17:55:09.335Z,95114.81
2023-08-16T17:57:37.671Z,95153.81
2023-08-16T18:00:10.837Z,95161.22
2023-08-16T18:02:39.188Z,95161.63
2023-08-16T18:05:08.159Z,95159.69
2023-08-16T18:07:38.054Z,95155.41
2023-08-16T18:10:07.200Z,95167.88
2023-08-16T18:12:35.720Z,95164.75
2023-08-16T18:15:04.075Z,95172.19
2023-08-16T18:17:36.642Z,95183.50
2023-08-16T18:20:05.810Z,95188.22
2023-08-16T18:22:34.315Z,95162.03
2023-08-16T18:25:04.146Z,95182.31
2023-08-16T18:27:32.819Z,95184.66
2023-08-16T18:30:01.356Z,95194.03
2023-08-16T18:32:29.631Z,95187.78
2023-08-16T18:34:59.335Z,95195.59
2023-08-16T18:37:27.756Z,95201.81
2023-08-16T18:39:56.440Z,95192.84
2023-08-16T18:42:24.885Z,95202.59
2023-08-16T18:44:53.276Z,95203.75
2023-08-16T18:47:21.617Z,95212.72
2023-08-16T18:49:49.923Z,95221.28
2023-08-16T18:52:19.620Z,95211.16
2023-08-16T18:54:47.932Z,95209.91
2023-08-16T18:57:16.142Z,95211.44
2023-08-16T18:59:44.606Z,95220.03
2023-08-16T19:02:12.971Z,95220.00
2023-08-16T19:04:41.629Z,95221.56
2023-08-16T19:07:10.149Z,95220.75
2023-08-16T19:09:39.786Z,95221.59
2023-08-16T19:12:09.240Z,95204.81
2023-08-16T19:14:40.387Z,95155.19
2023-08-16T19:17:08.983Z,95219.16
2023-08-16T19:19:37.400Z,95222.28
2023-08-16T19:22:06.083Z,95227.66
2023-08-16T19:24:34.458Z,95236.66
2023-08-16T19:27:04.253Z,95233.09
2023-08-16T19:29:32.542Z,95233.38
2023-08-16T19:32:01.114Z,95236.94
2023-08-16T19:34:29.456Z,95234.94
2023-08-16T19:37:00.415Z,95200.16
2023-08-16T19:39:28.661Z,95234.09
2023-08-16T19:41:56.975Z,95230.53
2023-08-16T19:44:26.787Z,95235.63
2023-08-16T19:46:55.076Z,95242.59
2023-08-16T19:49:23.436Z,95240.53
2023-08-16T19:51:51.727Z,95246.03
2023-08-16T19:54:19.965Z,95244.09
2023-08-16T19:56:48.282Z,95247.59
2023-08-16T19:59:16.552Z,95241.31
2023-08-16T20:01:46.245Z,95240.63
2023-08-16T20:04:14.578Z,95244.53
2023-08-16T20:06:42.972Z,95250.69
2023-08-16T20:09:11.318Z,95254.59
2023-08-16T20:11:39.733Z,95252.22
2023-08-16T20:14:07.989Z,95255.66
2023-08-16T20:16:37.982Z,95192.66
2023-08-16T20:19:09.242Z,95258.75
2023-08-16T20:21:37.620Z,95257.66
2023-08-16T20:24:06.531Z,95258.75
2023-08-16T20:26:34.886Z,95234.34
2023-08-16T20:29:06.059Z,95142.53
2023-08-16T20:31:34.532Z,95135.88
2023-08-16T20:34:03.926Z,95258.50
2023-08-16T20:36:35.641Z,95263.97
2023-08-16T20:39:03.956Z,95228.50
2023-08-16T20:41:32.234Z,95249.13
2023-08-16T20:44:00.467Z,95249.13
2023-08-16T20:46:38.307Z,95259.28
2023-08-16T20:49:10.273Z,95263.22
2023-08-16T20:51:42.206Z,95265.97
2023-08-16T20:54:14.294Z,95268.19
2023-08-16T20:56:43.445Z,95158.78
2023-08-16T20:59:11.730Z,95266.31
2023-08-16T21:01:43.662Z,95268.69
2023-08-16T21:04:13.587Z,95269.84
2023-08-16T21:06:43.310Z,95267.41
2023-08-16T21:09:11.633Z,95273.91
2023-08-16T21:11:39.844Z,95270.31
2023-08-16T21:14:08.219Z,95262.84
2023-08-16T21:16:36.602Z,95273.00
2023-08-16T21:19:05.252Z,95235.31
2023-08-16T21:21:33.709Z,95280.91
2023-08-16T21:24:04.119Z,95290.00
2023-08-16T21:26:32.400Z,95274.78
2023-08-16T21:29:00.848Z,95279.03
2023-08-16T21:31:29.238Z,95281.25
2023-08-16T21:33:58.000Z,95278.16
2023-08-16T21:36:26.262Z,95278.75
2023-08-16T21:38:55.042Z,95280.16
2023-08-16T21:41:24.798Z,95283.34
2023-08-16T21:43:53.066Z,95281.91
2023-08-16T21:46:21.410Z,95279.97
2023-08-16T21:48:49.638Z,95281.34
2023-08-16T21:51:18.032Z,95282.63
2023-08-16T21:53:46.359Z,95284.28
2023-08-16T21:56:14.670Z,95278.44
2023-08-16T21:58:44.500Z,95220.78
2023-08-16T22:01:12.911Z,95284.00
2023-08-16T22:03:41.290Z,95278.31
2023-08-16T22:06:10.170Z,95273.00
2023-08-16T22:08:38.489Z,95271.28
2023-08-16T22:11:06.882Z,95272.09
2023-08-16T22:13:36.794Z,95272.94
2023-08-16T22:16:06.732Z,95275.22
2023-08-16T22:18:37.772Z,95281.19
2023-08-16T22:21:08.026Z,95287.41
2023-08-16T22:23:37.885Z,95276.66
2023-08-16T22:26:07.865Z,95278.63
2023-08-16T22:28:39.139Z,95276.66
2023-08-16T22:31:08.879Z,95279.25
2023-08-16T22:33:37.240Z,95274.50
2023-08-16T22:36:06.073Z,95271.22
2023-08-16T22:38:34.380Z,95280.47
2023-08-16T22:41:02.667Z,95281.59
2023-08-16T22:43:30.924Z,95278.09
2023-08-16T22:45:59.210Z,95272.47
2023-08-16T22:48:28.899Z,95279.22
2023-08-16T22:50:57.161Z,95278.91
2023-08-16T22:53:25.481Z,95280.81
2023-08-16T22:55:53.906Z,95288.25
2023-08-16T22:58:22.376Z,95236.56
2023-08-16T23:00:50.879Z,95284.47
2023-08-16T23:03:19.176Z,95286.47
2023-08-16T23:05:48.850Z,95282.25
2023-08-16T23:08:17.188Z,95295.59
2023-08-16T23:10:45.866Z,95289.69
2023-08-16T23:13:14.261Z,95288.09
2023-08-16T23:15:42.550Z,95289.16
2023-08-16T23:18:10.769Z,95292.38
2023-08-16T23:20:39.093Z,95293.78
2023-08-16T23:23:09.178Z,95293.66
2023-08-16T23:25:37.727Z,95290.88
2023-08-16T23:28:06.780Z,95294.19
2023-08-16T23:30:35.156Z,95289.56
2023-08-16T23:33:03.702Z,95294.31
2023-08-16T23:35:32.160Z,95298.09
2023-08-16T23:38:00.472Z,95289.78
2023-08-16T23:40:30.159Z,95285.69
2023-08-16T23:42:58.371Z,95296.13
2023-08-16T23:45:28.899Z,95301.88
2023-08-16T23:47:57.385Z,95264.06
2023-08-16T23:50:25.769Z,95294.53
2023-08-16T23:52:54.080Z,95298.34
2023-08-16T23:55:22.615Z,95306.38
2023-08-16T23:57:52.436Z,95303.84
